sensor_id;sensor_type;location;lat;lon;timestamp;pressure;altitude;pressure_sealevel;temperature;humidity
50434;BME280;36361;38.954;-9.002;2022-07-06T00:00:52;100979.06;;;19.78;94.86
50434;BME280;36361;38.954;-9.002;2022-07-06T00:01:52;100977.06;;;19.73;95.01
50434;BME280;36361;38.954;-9.002;2022-07-06T00:02:53;100977.38;;;19.77;94.75
50434;BME280;36361;38.954;-9.002;2022-07-06T00:03:53;100971.28;;;19.70;95.14
50434;BME280;36361;38.954;-9.002;2022-07-06T00:04:54;100971.56;;;19.73;95.02
50434;BME280;36361;38.954;-9.002;2022-07-06T00:05:56;100969.06;;;19.72;95.22
50434;BME280;36361;38.954;-9.002;2022-07-06T00:06:56;100974.28;;;19.63;95.93
50434;BME280;36361;38.954;-9.002;2022-07-06T00:07:57;100970.16;;;19.71;95.53
50434;BME280;36361;38.954;-9.002;2022-07-06T00:08:58;100973.53;;;19.78;94.95
50434;BME280;36361;38.954;-9.002;2022-07-06T00:09:59;100977.91;;;19.74;95.25
50434;BME280;36361;38.954;-9.002;2022-07-06T00:11:00;100976.28;;;19.83;94.92
50434;BME280;36361;38.954;-9.002;2022-07-06T00:12:00;100971.31;;;19.80;94.93
50434;BME280;36361;38.954;-9.002;2022-07-06T00:13:01;100970.50;;;19.79;94.46
50434;BME280;36361;38.954;-9.002;2022-07-06T00:14:02;100964.97;;;19.79;94.26
50434;BME280;36361;38.954;-9.002;2022-07-06T00:15:03;100968.25;;;19.71;94.46
50434;BME280;36361;38.954;-9.002;2022-07-06T00:16:05;100956.75;;;19.47;96.01
50434;BME280;36361;38.954;-9.002;2022-07-06T00:17:05;100959.34;;;19.59;95.85
50434;BME280;36361;38.954;-9.002;2022-07-06T00:18:06;100963.00;;;19.70;95.17
50434;BME280;36361;38.954;-9.002;2022-07-06T00:19:07;100959.34;;;19.59;95.30
50434;BME280;36361;38.954;-9.002;2022-07-06T00:20:08;100954.78;;;19.38;96.77
50434;BME280;36361;38.954;-9.002;2022-07-06T00:21:09;100958.41;;;19.43;96.51
50434;BME280;36361;38.954;-9.002;2022-07-06T00:22:09;100954.81;;;19.43;96.54
50434;BME280;36361;38.954;-9.002;2022-07-06T00:23:10;100960.09;;;19.49;95.97
50434;BME280;36361;38.954;-9.002;2022-07-06T00:24:11;100961.03;;;19.23;97.79
50434;BME280;36361;38.954;-9.002;2022-07-06T00:25:12;100955.03;;;19.36;97.16
50434;BME280;36361;38.954;-9.002;2022-07-06T00:26:13;100955.09;;;19.46;96.20
50434;BME280;36361;38.954;-9.002;2022-07-06T00:27:13;100949.28;;;19.43;96.67
50434;BME280;36361;38.954;-9.002;2022-07-06T00:28:15;100947.75;;;19.57;95.64
50434;BME280;36361;38.954;-9.002;2022-07-06T00:29:15;100946.94;;;19.62;95.21
50434;BME280;36361;38.954;-9.002;2022-07-06T00:30:16;100951.78;;;19.44;95.82
50434;BME280;36361;38.954;-9.002;2022-07-06T00:31:17;100946.94;;;19.62;95.20
50434;BME280;36361;38.954;-9.002;2022-07-06T00:32:17;100947.97;;;19.50;95.34
50434;BME280;36361;38.954;-9.002;2022-07-06T00:33:18;100954.53;;;19.39;95.57
50434;BME280;36361;38.954;-9.002;2022-07-06T00:34:19;100950.44;;;19.10;97.05
50434;BME280;36361;38.954;-9.002;2022-07-06T00:35:20;100952.03;;;18.95;98.53
50434;BME280;36361;38.954;-9.002;2022-07-06T00:36:20;100954.56;;;19.02;97.88
50434;BME280;36361;38.954;-9.002;2022-07-06T00:37:21;100947.66;;;18.67;99.81
50434;BME280;36361;38.954;-9.002;2022-07-06T00:38:22;100949.41;;;18.79;99.57
50434;BME280;36361;38.954;-9.002;2022-07-06T00:39:22;100947.53;;;18.84;99.36
50434;BME280;36361;38.954;-9.002;2022-07-06T00:40:29;100945.66;;;19.32;97.13
50434;BME280;36361;38.954;-9.002;2022-07-06T00:41:33;100950.66;;;19.40;95.96
50434;BME280;36361;38.954;-9.002;2022-07-06T00:42:41;100951.22;;;19.42;95.97
50434;BME280;36361;38.954;-9.002;2022-07-06T00:43:53;100947.66;;;19.47;95.57
50434;BME280;36361;38.954;-9.002;2022-07-06T00:44:57;100951.44;;;19.30;95.60
50434;BME280;36361;38.954;-9.002;2022-07-06T00:45:58;100944.25;;;19.29;95.79
50434;BME280;36361;38.954;-9.002;2022-07-06T00:46:59;100939.03;;;19.38;95.21
50434;BME280;36361;38.954;-9.002;2022-07-06T00:48:00;100937.44;;;19.42;95.13
50434;BME280;36361;38.954;-9.002;2022-07-06T00:49:01;100932.94;;;19.31;95.02
50434;BME280;36361;38.954;-9.002;2022-07-06T00:50:03;100930.72;;;19.28;95.50
50434;BME280;36361;38.954;-9.002;2022-07-06T00:51:19;100933.44;;;19.23;96.18
50434;BME280;36361;38.954;-9.002;2022-07-06T00:52:20;100929.66;;;19.34;95.44
50434;BME280;36361;38.954;-9.002;2022-07-06T00:53:21;100925.00;;;19.45;95.09
50434;BME280;36361;38.954;-9.002;2022-07-06T00:54:22;100937.66;;;19.36;95.00
50434;BME280;36361;38.954;-9.002;2022-07-06T00:55:25;100930.75;;;19.33;95.30
50434;BME280;36361;38.954;-9.002;2022-07-06T00:56:26;100930.25;;;19.41;95.21
50434;BME280;36361;38.954;-9.002;2022-07-06T00:57:29;100931.31;;;19.35;95.64
50434;BME280;36361;38.954;-9.002;2022-07-06T00:58:29;100931.09;;;19.47;95.17
50434;BME280;36361;38.954;-9.002;2022-07-06T00:59:30;100924.19;;;19.44;94.81
50434;BME280;36361;38.954;-9.002;2022-07-06T01:00:31;100933.84;;;19.47;94.86
50434;BME280;36361;38.954;-9.002;2022-07-06T01:01:32;100930.03;;;19.53;94.43
50434;BME280;36361;38.954;-9.002;2022-07-06T01:02:34;100930.38;;;19.62;94.15
50434;BME280;36361;38.954;-9.002;2022-07-06T01:03:35;100929.00;;;19.64;93.94
50434;BME280;36361;38.954;-9.002;2022-07-06T01:04:37;100931.47;;;19.60;93.94
50434;BME280;36361;38.954;-9.002;2022-07-06T01:05:38;100926.41;;;19.47;94.23
50434;BME280;36361;38.954;-9.002;2022-07-06T01:06:39;100927.22;;;19.43;94.74
50434;BME280;36361;38.954;-9.002;2022-07-06T01:07:42;100928.38;;;19.52;94.30
50434;BME280;36361;38.954;-9.002;2022-07-06T01:08:44;100920.09;;;19.52;93.97
50434;BME280;36361;38.954;-9.002;2022-07-06T01:09:44;100924.78;;;19.51;93.94
50434;BME280;36361;38.954;-9.002;2022-07-06T01:10:45;100922.38;;;19.60;93.71
50434;BME280;36361;38.954;-9.002;2022-07-06T01:11:46;100925.34;;;19.53;93.75
50434;BME280;36361;38.954;-9.002;2022-07-06T01:12:48;100919.25;;;19.51;93.78
50434;BME280;36361;38.954;-9.002;2022-07-06T01:13:50;100922.53;;;19.43;94.16
50434;BME280;36361;38.954;-9.002;2022-07-06T01:14:51;100921.94;;;19.36;94.46
50434;BME280;36361;38.954;-9.002;2022-07-06T01:15:52;100919.06;;;19.16;94.98
50434;BME280;36361;38.954;-9.002;2022-07-06T01:16:53;100920.81;;;19.32;94.33
50434;BME280;36361;38.954;-9.002;2022-07-06T01:17:53;100911.97;;;19.30;94.13
50434;BME280;36361;38.954;-9.002;2022-07-06T01:18:59;100913.66;;;19.36;93.33
50434;BME280;36361;38.954;-9.002;2022-07-06T01:20:20;100916.59;;;19.19;94.29
50434;BME280;36361;38.954;-9.002;2022-07-06T01:21:21;100919.25;;;19.04;93.94
50434;BME280;36361;38.954;-9.002;2022-07-06T01:22:21;100923.13;;;19.03;94.13
50434;BME280;36361;38.954;-9.002;2022-07-06T01:23:22;100919.00;;;19.11;94.06
50434;BME280;36361;38.954;-9.002;2022-07-06T01:24:23;100919.09;;;19.21;93.89
50434;BME280;36361;38.954;-9.002;2022-07-06T01:25:23;100928.00;;;19.33;94.07
50434;BME280;36361;38.954;-9.002;2022-07-06T01:26:24;100918.06;;;19.37;94.31
50434;BME280;36361;38.954;-9.002;2022-07-06T01:27:25;100919.38;;;19.24;94.66
50434;BME280;36361;38.954;-9.002;2022-07-06T01:28:26;100924.09;;;19.29;94.47
50434;BME280;36361;38.954;-9.002;2022-07-06T01:29:27;100926.44;;;19.05;95.04
50434;BME280;36361;38.954;-9.002;2022-07-06T01:30:27;100928.75;;;18.81;95.57
50434;BME280;36361;38.954;-9.002;2022-07-06T01:31:28;100923.75;;;18.78;96.45
50434;BME280;36361;38.954;-9.002;2022-07-06T01:32:29;100918.25;;;18.83;96.11
50434;BME280;36361;38.954;-9.002;2022-07-06T01:33:29;100918.25;;;18.78;96.40
50434;BME280;36361;38.954;-9.002;2022-07-06T01:34:30;100918.84;;;18.85;96.92
50434;BME280;36361;38.954;-9.002;2022-07-06T01:35:31;100905.75;;;19.08;95.66
50434;BME280;36361;38.954;-9.002;2022-07-06T01:36:34;100909.13;;;19.15;95.30
50434;BME280;36361;38.954;-9.002;2022-07-06T01:37:35;100908.13;;;19.36;94.49
50434;BME280;36361;38.954;-9.002;2022-07-06T01:38:50;100912.06;;;19.50;93.63
50434;BME280;36361;38.954;-9.002;2022-07-06T01:39:51;100910.69;;;19.53;93.17
50434;BME280;36361;38.954;-9.002;2022-07-06T01:40:51;100906.78;;;19.44;93.47
50434;BME280;36361;38.954;-9.002;2022-07-06T01:41:53;100903.66;;;19.25;94.37
50434;BME280;36361;38.954;-9.002;2022-07-06T01:42:54;100902.00;;;19.29;93.94
50434;BME280;36361;38.954;-9.002;2022-07-06T01:43:54;100906.91;;;19.12;94.75
50434;BME280;36361;38.954;-9.002;2022-07-06T01:44:56;100903.88;;;19.13;94.73
50434;BME280;36361;38.954;-9.002;2022-07-06T01:45:56;100904.19;;;19.22;94.48
50434;BME280;36361;38.954;-9.002;2022-07-06T01:46:57;100900.03;;;19.19;94.64
50434;BME280;36361;38.954;-9.002;2022-07-06T01:47:58;100909.66;;;19.12;95.17
50434;BME280;36361;38.954;-9.002;2022-07-06T01:48:59;100892.03;;;19.18;94.86
50434;BME280;36361;38.954;-9.002;2022-07-06T01:50:06;100896.66;;;19.07;95.77
50434;BME280;36361;38.954;-9.002;2022-07-06T01:51:09;100896.25;;;18.88;96.37
50434;BME280;36361;38.954;-9.002;2022-07-06T01:52:11;100894.38;;;18.94;96.09
50434;BME280;36361;38.954;-9.002;2022-07-06T01:53:11;100889.44;;;19.01;96.25
50434;BME280;36361;38.954;-9.002;2022-07-06T01:54:12;100890.84;;;19.03;95.97
50434;BME280;36361;38.954;-9.002;2022-07-06T01:55:13;100886.66;;;18.96;95.90
50434;BME280;36361;38.954;-9.002;2022-07-06T01:56:14;100883.69;;;19.02;94.93
50434;BME280;36361;38.954;-9.002;2022-07-06T01:57:16;100882.59;;;19.09;94.87
50434;BME280;36361;38.954;-9.002;2022-07-06T01:58:16;100882.00;;;19.01;95.41
50434;BME280;36361;38.954;-9.002;2022-07-06T01:59:17;100885.34;;;19.03;96.03
50434;BME280;36361;38.954;-9.002;2022-07-06T02:00:18;100880.38;;;19.11;95.58
50434;BME280;36361;38.954;-9.002;2022-07-06T02:01:23;100879.16;;;18.86;95.80
50434;BME280;36361;38.954;-9.002;2022-07-06T02:02:24;100880.09;;;18.65;96.33
50434;BME280;36361;38.954;-9.002;2022-07-06T02:03:25;100880.97;;;18.70;96.13
50434;BME280;36361;38.954;-9.002;2022-07-06T02:04:25;100883.31;;;18.57;97.20
50434;BME280;36361;38.954;-9.002;2022-07-06T02:05:27;100887.47;;;18.59;96.90
50434;BME280;36361;38.954;-9.002;2022-07-06T02:06:27;100884.91;;;18.47;96.92
50434;BME280;36361;38.954;-9.002;2022-07-06T02:07:28;100891.97;;;18.38;98.19
50434;BME280;36361;38.954;-9.002;2022-07-06T02:08:29;100894.22;;;18.41;97.90
50434;BME280;36361;38.954;-9.002;2022-07-06T02:09:30;100892.09;;;18.54;97.88
50434;BME280;36361;38.954;-9.002;2022-07-06T02:10:31;100894.19;;;18.68;96.79
50434;BME280;36361;38.954;-9.002;2022-07-06T02:11:32;100888.34;;;18.65;96.87
50434;BME280;36361;38.954;-9.002;2022-07-06T02:12:32;100898.75;;;18.58;97.65
50434;BME280;36361;38.954;-9.002;2022-07-06T02:13:34;100895.66;;;18.49;97.93
50434;BME280;36361;38.954;-9.002;2022-07-06T02:14:35;100896.91;;;18.36;98.16
50434;BME280;36361;38.954;-9.002;2022-07-06T02:15:36;100899.06;;;18.61;97.22
50434;BME280;36361;38.954;-9.002;2022-07-06T02:16:37;100902.63;;;18.57;96.97
50434;BME280;36361;38.954;-9.002;2022-07-06T02:17:38;100896.47;;;18.77;96.17
50434;BME280;36361;38.954;-9.002;2022-07-06T02:18:39;100907.06;;;18.63;97.13
50434;BME280;36361;38.954;-9.002;2022-07-06T02:19:43;100905.81;;;18.75;96.64
50434;BME280;36361;38.954;-9.002;2022-07-06T02:20:43;100905.50;;;18.72;96.36
50434;BME280;36361;38.954;-9.002;2022-07-06T02:21:44;100909.16;;;18.51;96.55
50434;BME280;36361;38.954;-9.002;2022-07-06T02:22:46;100903.13;;;18.54;96.63
50434;BME280;36361;38.954;-9.002;2022-07-06T02:23:48;100904.19;;;18.47;96.66
50434;BME280;36361;38.954;-9.002;2022-07-06T02:24:49;100902.94;;;18.33;97.13
50434;BME280;36361;38.954;-9.002;2022-07-06T02:25:50;100902.31;;;18.26;97.40
50434;BME280;36361;38.954;-9.002;2022-07-06T02:26:50;100902.94;;;18.33;97.64
50434;BME280;36361;38.954;-9.002;2022-07-06T02:27:51;100901.91;;;18.39;96.73
50434;BME280;36361;38.954;-9.002;2022-07-06T02:28:52;100909.00;;;18.30;97.33
50434;BME280;36361;38.954;-9.002;2022-07-06T02:29:52;100905.22;;;18.41;97.51
50434;BME280;36361;38.954;-9.002;2022-07-06T02:30:53;100897.03;;;18.52;97.47
50434;BME280;36361;38.954;-9.002;2022-07-06T02:31:54;100894.13;;;18.31;99.17
50434;BME280;36361;38.954;-9.002;2022-07-06T02:32:55;100901.22;;;18.27;99.95
50434;BME280;36361;38.954;-9.002;2022-07-06T02:33:55;100894.53;;;18.18;100.00
50434;BME280;36361;38.954;-9.002;2022-07-06T02:34:56;100887.16;;;18.24;100.00
50434;BME280;36361;38.954;-9.002;2022-07-06T02:35:56;100885.78;;;18.26;100.00
50434;BME280;36361;38.954;-9.002;2022-07-06T02:36:57;100891.28;;;18.53;100.00
50434;BME280;36361;38.954;-9.002;2022-07-06T02:37:59;100893.66;;;18.71;100.00
50434;BME280;36361;38.954;-9.002;2022-07-06T02:39:00;100892.38;;;18.84;99.83
50434;BME280;36361;38.954;-9.002;2022-07-06T02:40:02;100884.78;;;18.37;100.00
50434;BME280;36361;38.954;-9.002;2022-07-06T02:41:04;100880.56;;;18.57;100.00
50434;BME280;36361;38.954;-9.002;2022-07-06T02:42:05;100888.84;;;18.62;100.00
50434;BME280;36361;38.954;-9.002;2022-07-06T02:43:06;100884.00;;;18.69;100.00
50434;BME280;36361;38.954;-9.002;2022-07-06T02:44:08;100882.75;;;18.92;100.00
50434;BME280;36361;38.954;-9.002;2022-07-06T02:45:09;100887.09;;;18.78;100.00
50434;BME280;36361;38.954;-9.002;2022-07-06T02:46:10;100868.63;;;18.83;100.00
50434;BME280;36361;38.954;-9.002;2022-07-06T02:47:11;100871.97;;;18.85;100.00
50434;BME280;36361;38.954;-9.002;2022-07-06T02:48:13;100882.97;;;18.80;100.00
50434;BME280;36361;38.954;-9.002;2022-07-06T02:49:13;100879.22;;;18.96;100.00
50434;BME280;36361;38.954;-9.002;2022-07-06T02:50:14;100881.16;;;19.01;100.00
50434;BME280;36361;38.954;-9.002;2022-07-06T02:51:15;100890.31;;;19.07;100.00
50434;BME280;36361;38.954;-9.002;2022-07-06T02:52:16;100874.03;;;19.10;100.00
50434;BME280;36361;38.954;-9.002;2022-07-06T02:53:18;100891.16;;;18.70;100.00
50434;BME280;36361;38.954;-9.002;2022-07-06T02:54:22;100896.56;;;18.60;100.00
50434;BME280;36361;38.954;-9.002;2022-07-06T02:55:23;100895.72;;;18.91;100.00
50434;BME280;36361;38.954;-9.002;2022-07-06T02:56:24;100891.38;;;19.00;100.00
50434;BME280;36361;38.954;-9.002;2022-07-06T02:57:25;100891.94;;;19.02;100.00
50434;BME280;36361;38.954;-9.002;2022-07-06T02:58:26;100896.09;;;19.05;100.00
50434;BME280;36361;38.954;-9.002;2022-07-06T02:59:27;100888.09;;;19.03;100.00
50434;BME280;36361;38.954;-9.002;2022-07-06T03:00:28;100884.25;;;19.10;100.00
50434;BME280;36361;38.954;-9.002;2022-07-06T03:01:30;100888.44;;;19.17;100.00
50434;BME280;36361;38.954;-9.002;2022-07-06T03:02:30;100891.00;;;18.87;100.00
50434;BME280;36361;38.954;-9.002;2022-07-06T03:03:32;100883.13;;;19.06;100.00
50434;BME280;36361;38.954;-9.002;2022-07-06T03:04:33;100872.03;;;18.95;100.00
50434;BME280;36361;38.954;-9.002;2022-07-06T03:05:34;100875.06;;;18.94;100.00
50434;BME280;36361;38.954;-9.002;2022-07-06T03:06:35;100878.75;;;18.72;100.00
50434;BME280;36361;38.954;-9.002;2022-07-06T03:07:36;100876.09;;;18.51;100.00
50434;BME280;36361;38.954;-9.002;2022-07-06T03:08:37;100886.06;;;18.57;100.00
50434;BME280;36361;38.954;-9.002;2022-07-06T03:09:41;100879.75;;;18.61;100.00
50434;BME280;36361;38.954;-9.002;2022-07-06T03:10:42;100879.59;;;18.73;100.00
50434;BME280;36361;38.954;-9.002;2022-07-06T03:11:43;100869.78;;;18.87;100.00
50434;BME280;36361;38.954;-9.002;2022-07-06T03:12:48;100873.16;;;18.99;100.00
50434;BME280;36361;38.954;-9.002;2022-07-06T03:13:48;100884.25;;;19.10;100.00
50434;BME280;36361;38.954;-9.002;2022-07-06T03:14:49;100882.09;;;19.17;100.00
50434;BME280;36361;38.954;-9.002;2022-07-06T03:15:50;100878.72;;;19.10;99.95
50434;BME280;36361;38.954;-9.002;2022-07-06T03:16:51;100886.22;;;18.72;100.00
50434;BME280;36361;38.954;-9.002;2022-07-06T03:17:53;100884.13;;;18.89;100.00
50434;BME280;36361;38.954;-9.002;2022-07-06T03:18:54;100879.84;;;19.09;100.00
50434;BME280;36361;38.954;-9.002;2022-07-06T03:19:55;100885.91;;;19.11;100.00
50434;BME280;36361;38.954;-9.002;2022-07-06T03:20:57;100876.63;;;19.22;100.00
50434;BME280;36361;38.954;-9.002;2022-07-06T03:21:57;100879.88;;;19.19;99.85
50434;BME280;36361;38.954;-9.002;2022-07-06T03:22:59;100880.38;;;19.11;99.96
50434;BME280;36361;38.954;-9.002;2022-07-06T03:24:00;100884.84;;;19.17;100.00
50434;BME280;36361;38.954;-9.002;2022-07-06T03:25:02;100875.72;;;19.11;99.87
50434;BME280;36361;38.954;-9.002;2022-07-06T03:26:03;100875.97;;;19.04;99.82
50434;BME280;36361;38.954;-9.002;2022-07-06T03:27:05;100863.78;;;18.95;99.56
50434;BME280;36361;38.954;-9.002;2022-07-06T03:28:06;100874.81;;;19.00;100.00
50434;BME280;36361;38.954;-9.002;2022-07-06T03:29:08;100871.59;;;19.14;99.47
50434;BME280;36361;38.954;-9.002;2022-07-06T03:30:09;100874.88;;;19.11;99.47
50434;BME280;36361;38.954;-9.002;2022-07-06T03:31:15;100875.69;;;19.06;99.62
50434;BME280;36361;38.954;-9.002;2022-07-06T03:32:16;100878.94;;;18.98;100.00
50434;BME280;36361;38.954;-9.002;2022-07-06T03:33:17;100874.53;;;18.97;100.00
50434;BME280;36361;38.954;-9.002;2022-07-06T03:34:18;100877.94;;;19.14;99.85
50434;BME280;36361;38.954;-9.002;2022-07-06T03:35:19;100888.72;;;19.16;99.91
50434;BME280;36361;38.954;-9.002;2022-07-06T03:36:21;100882.38;;;19.15;99.88
50434;BME280;36361;38.954;-9.002;2022-07-06T03:37:22;100889.53;;;19.16;99.71
50434;BME280;36361;38.954;-9.002;2022-07-06T03:38:23;100884.31;;;19.20;99.42
50434;BME280;36361;38.954;-9.002;2022-07-06T03:39:24;100887.09;;;19.25;99.21
50434;BME280;36361;38.954;-9.002;2022-07-06T03:40:26;100887.66;;;19.22;99.12
50434;BME280;36361;38.954;-9.002;2022-07-06T03:41:27;100882.41;;;19.25;99.07
50434;BME280;36361;38.954;-9.002;2022-07-06T03:42:27;100893.69;;;19.19;99.05
50434;BME280;36361;38.954;-9.002;2022-07-06T03:43:28;100893.69;;;19.19;98.84
50434;BME280;36361;38.954;-9.002;2022-07-06T03:44:29;100878.28;;;19.23;98.75
50434;BME280;36361;38.954;-9.002;2022-07-06T03:45:30;100883.25;;;19.26;98.18
50434;BME280;36361;38.954;-9.002;2022-07-06T03:46:33;100880.16;;;19.17;98.71
50434;BME280;36361;38.954;-9.002;2022-07-06T03:47:35;100883.75;;;19.18;98.95
50434;BME280;36361;38.954;-9.002;2022-07-06T03:48:39;100884.28;;;19.15;99.33
50434;BME280;36361;38.954;-9.002;2022-07-06T03:49:41;100891.69;;;18.67;100.00
50434;BME280;36361;38.954;-9.002;2022-07-06T03:50:49;100889.78;;;18.67;100.00
50434;BME280;36361;38.954;-9.002;2022-07-06T03:51:50;100887.34;;;18.76;100.00
50434;BME280;36361;38.954;-9.002;2022-07-06T03:52:51;100896.53;;;18.87;100.00
50434;BME280;36361;38.954;-9.002;2022-07-06T03:53:52;100890.25;;;18.96;100.00
50434;BME280;36361;38.954;-9.002;2022-07-06T03:54:53;100901.28;;;19.01;100.00
50434;BME280;36361;38.954;-9.002;2022-07-06T03:55:58;100901.72;;;18.83;100.00
50434;BME280;36361;38.954;-9.002;2022-07-06T03:57:18;100894.06;;;18.90;100.00
50434;BME280;36361;38.954;-9.002;2022-07-06T03:58:19;100910.50;;;18.75;100.00
50434;BME280;36361;38.954;-9.002;2022-07-06T03:59:19;100901.16;;;18.76;100.00
50434;BME280;36361;38.954;-9.002;2022-07-06T04:00:20;100898.88;;;18.68;100.00
50434;BME280;36361;38.954;-9.002;2022-07-06T04:01:28;100905.59;;;18.55;100.00
50434;BME280;36361;38.954;-9.002;2022-07-06T04:02:31;100904.38;;;18.68;100.00
50434;BME280;36361;38.954;-9.002;2022-07-06T04:03:33;100899.50;;;18.80;100.00
50434;BME280;36361;38.954;-9.002;2022-07-06T04:04:34;100910.25;;;18.82;100.00
50434;BME280;36361;38.954;-9.002;2022-07-06T04:05:34;100912.88;;;18.98;100.00
50434;BME280;36361;38.954;-9.002;2022-07-06T04:06:35;100912.03;;;18.98;100.00
50434;BME280;36361;38.954;-9.002;2022-07-06T04:07:37;100913.16;;;18.97;100.00
50434;BME280;36361;38.954;-9.002;2022-07-06T04:08:38;100904.53;;;18.88;100.00
50434;BME280;36361;38.954;-9.002;2022-07-06T04:09:39;100910.84;;;18.84;100.00
50434;BME280;36361;38.954;-9.002;2022-07-06T04:10:41;100905.00;;;18.75;100.00
50434;BME280;36361;38.954;-9.002;2022-07-06T04:11:42;100910.59;;;18.90;100.00
50434;BME280;36361;38.954;-9.002;2022-07-06T04:12:44;100913.69;;;18.94;100.00
50434;BME280;36361;38.954;-9.002;2022-07-06T04:13:45;100917.59;;;19.03;100.00
50434;BME280;36361;38.954;-9.002;2022-07-06T04:14:46;100919.78;;;19.01;100.00
50434;BME280;36361;38.954;-9.002;2022-07-06T04:15:46;100915.09;;;19.01;100.00
50434;BME280;36361;38.954;-9.002;2022-07-06T04:16:47;100923.94;;;19.03;100.00
50434;BME280;36361;38.954;-9.002;2022-07-06T04:17:48;100922.78;;;18.94;100.00
50434;BME280;36361;38.954;-9.002;2022-07-06T04:19:04;100919.97;;;18.84;100.00
50434;BME280;36361;38.954;-9.002;2022-07-06T04:20:05;100917.06;;;18.69;100.00
50434;BME280;36361;38.954;-9.002;2022-07-06T04:21:06;100917.59;;;18.66;100.00
50434;BME280;36361;38.954;-9.002;2022-07-06T04:22:09;100922.13;;;18.82;100.00
50434;BME280;36361;38.954;-9.002;2022-07-06T04:23:10;100917.75;;;18.86;100.00
50434;BME280;36361;38.954;-9.002;2022-07-06T04:24:10;100925.50;;;18.57;100.00
50434;BME280;36361;38.954;-9.002;2022-07-06T04:25:12;100926.25;;;18.47;100.00
50434;BME280;36361;38.954;-9.002;2022-07-06T04:26:13;100932.03;;;18.51;100.00
50434;BME280;36361;38.954;-9.002;2022-07-06T04:27:13;100932.78;;;18.68;100.00
50434;BME280;36361;38.954;-9.002;2022-07-06T04:28:14;100935.69;;;18.57;100.00
50434;BME280;36361;38.954;-9.002;2022-07-06T04:29:15;100945.53;;;18.47;100.00
50434;BME280;36361;38.954;-9.002;2022-07-06T04:30:16;100948.28;;;18.47;100.00
50434;BME280;36361;38.954;-9.002;2022-07-06T04:31:17;100939.41;;;18.72;100.00
50434;BME280;36361;38.954;-9.002;2022-07-06T04:32:20;100951.59;;;18.50;100.00
50434;BME280;36361;38.954;-9.002;2022-07-06T04:33:22;100948.28;;;18.47;100.00
50434;BME280;36361;38.954;-9.002;2022-07-06T04:34:23;100944.09;;;18.72;100.00
50434;BME280;36361;38.954;-9.002;2022-07-06T04:35:24;100954.97;;;18.57;100.00
50434;BME280;36361;38.954;-9.002;2022-07-06T04:36:26;100957.16;;;18.55;100.00
50434;BME280;36361;38.954;-9.002;2022-07-06T04:37:29;100954.50;;;18.65;100.00
50434;BME280;36361;38.954;-9.002;2022-07-06T04:38:30;100954.09;;;18.78;100.00
50434;BME280;36361;38.954;-9.002;2022-07-06T04:39:35;100956.09;;;18.61;100.00
50434;BME280;36361;38.954;-9.002;2022-07-06T04:40:36;100956.66;;;18.63;100.00
50434;BME280;36361;38.954;-9.002;2022-07-06T04:41:41;100953.56;;;18.54;100.00
50434;BME280;36361;38.954;-9.002;2022-07-06T04:42:42;100958.63;;;18.35;100.00
50434;BME280;36361;38.954;-9.002;2022-07-06T04:43:43;100955.66;;;18.42;100.00
50434;BME280;36361;38.954;-9.002;2022-07-06T04:44:47;100964.91;;;18.58;100.00
50434;BME280;36361;38.954;-9.002;2022-07-06T04:45:48;100950.16;;;18.69;100.00
50434;BME280;36361;38.954;-9.002;2022-07-06T04:46:49;100958.81;;;18.83;100.00
50434;BME280;36361;38.954;-9.002;2022-07-06T04:47:50;100962.09;;;18.53;100.00
50434;BME280;36361;38.954;-9.002;2022-07-06T04:48:52;100973.69;;;18.55;100.00
50434;BME280;36361;38.954;-9.002;2022-07-06T04:49:58;100962.63;;;18.50;100.00
50434;BME280;36361;38.954;-9.002;2022-07-06T04:50:59;100964.22;;;18.67;100.00
50434;BME280;36361;38.954;-9.002;2022-07-06T04:52:02;100971.09;;;18.70;100.00
50434;BME280;36361;38.954;-9.002;2022-07-06T04:53:04;100969.84;;;18.56;100.00
50434;BME280;36361;38.954;-9.002;2022-07-06T04:54:07;100964.50;;;18.71;100.00
50434;BME280;36361;38.954;-9.002;2022-07-06T04:55:09;100971.91;;;18.65;100.00
50434;BME280;36361;38.954;-9.002;2022-07-06T04:56:11;100974.28;;;18.57;100.00
50434;BME280;36361;38.954;-9.002;2022-07-06T04:57:13;100971.47;;;18.79;100.00
50434;BME280;36361;38.954;-9.002;2022-07-06T04:58:15;100973.22;;;18.63;100.00
50434;BME280;36361;38.954;-9.002;2022-07-06T04:59:16;100981.66;;;18.78;100.00
50434;BME280;36361;38.954;-9.002;2022-07-06T05:00:18;100980.50;;;18.74;100.00
50434;BME280;36361;38.954;-9.002;2022-07-06T05:01:21;100976.78;;;18.85;100.00
50434;BME280;36361;38.954;-9.002;2022-07-06T05:02:22;100982.88;;;18.92;100.00
50434;BME280;36361;38.954;-9.002;2022-07-06T05:03:23;100984.03;;;19.01;100.00
50434;BME280;36361;38.954;-9.002;2022-07-06T05:04:24;100978.22;;;18.93;100.00
50434;BME280;36361;38.954;-9.002;2022-07-06T05:05:25;100975.47;;;18.98;100.00
50434;BME280;36361;38.954;-9.002;2022-07-06T05:06:26;100979.56;;;18.90;100.00
50434;BME280;36361;38.954;-9.002;2022-07-06T05:07:27;100983.81;;;19.03;100.00
50434;BME280;36361;38.954;-9.002;2022-07-06T05:08:30;100986.31;;;19.10;100.00
50434;BME280;36361;38.954;-9.002;2022-07-06T05:09:31;100991.31;;;19.13;100.00
50434;BME280;36361;38.954;-9.002;2022-07-06T05:10:31;100986.38;;;19.15;100.00
50434;BME280;36361;38.954;-9.002;2022-07-06T05:11:32;100994.09;;;19.13;100.00
50434;BME280;36361;38.954;-9.002;2022-07-06T05:12:33;100994.09;;;19.13;100.00
50434;BME280;36361;38.954;-9.002;2022-07-06T05:13:37;100996.03;;;19.17;100.00
50434;BME280;36361;38.954;-9.002;2022-07-06T05:14:38;101000.19;;;19.20;100.00
50434;BME280;36361;38.954;-9.002;2022-07-06T05:15:40;100991.91;;;19.20;100.00
50434;BME280;36361;38.954;-9.002;2022-07-06T05:16:41;101000.19;;;19.20;100.00